createdAt,value
2024-01-19T00:00:50.247Z,-2.20
2024-01-19T00:03:17.480Z,-2.20
2024-01-19T00:05:44.898Z,-2.20
2024-01-19T00:08:12.214Z,-2.30
2024-01-19T00:10:39.457Z,-2.30
2024-01-19T00:13:06.625Z,-2.30
2024-01-19T00:15:39.887Z,-2.30
2024-01-19T00:18:10.472Z,-2.30
2024-01-19T00:20:38.238Z,-2.30
2024-01-19T00:23:05.606Z,-2.20
2024-01-19T00:25:32.837Z,-2.30
2024-01-19T00:27:59.971Z,-2.20
2024-01-19T00:30:27.133Z,-2.30
2024-01-19T00:32:54.503Z,-2.30
2024-01-19T00:35:22.173Z,-2.20
2024-01-19T00:37:49.813Z,-2.30
2024-01-19T00:40:17.206Z,-2.30
2024-01-19T00:42:44.751Z,-2.30
2024-01-19T00:45:12.408Z,-2.30
2024-01-19T00:47:40.015Z,-2.30
2024-01-19T00:50:08.216Z,-2.20
2024-01-19T00:52:35.804Z,-2.20
2024-01-19T00:55:02.997Z,-2.20
2024-01-19T00:57:30.139Z,-2.20
2024-01-19T00:59:57.378Z,-2.10
2024-01-19T01:02:29.037Z,-2.10
2024-01-19T01:04:56.481Z,-2.00
2024-01-19T01:07:24.228Z,-2.00
2024-01-19T01:09:51.471Z,-2.10
2024-01-19T01:12:18.677Z,-2.00
2024-01-19T01:14:47.962Z,-2.00
2024-01-19T01:17:15.261Z,-2.00
2024-01-19T01:19:42.494Z,-2.00
2024-01-19T01:22:13.625Z,-2.00
2024-01-19T01:24:40.757Z,-2.10
2024-01-19T01:27:07.966Z,-2.10
2024-01-19T01:29:35.565Z,-2.10
2024-01-19T01:32:02.795Z,-2.10
2024-01-19T01:34:30.037Z,-2.10
2024-01-19T01:36:57.185Z,-2.20
2024-01-19T01:39:24.706Z,-2.20
2024-01-19T01:41:52.158Z,-2.20
2024-01-19T01:44:19.432Z,-2.10
2024-01-19T01:46:49.104Z,-2.20
2024-01-19T01:49:18.352Z,-2.10
2024-01-19T01:51:47.028Z,-2.10
2024-01-19T01:54:15.817Z,-2.10
2024-01-19T01:56:43.283Z,-2.00
2024-01-19T01:59:10.841Z,-2.00
2024-01-19T02:01:38.311Z,-1.90
2024-01-19T02:04:10.384Z,-1.80
2024-01-19T02:06:38.567Z,-1.80
2024-01-19T02:09:08.274Z,-1.80
2024-01-19T02:11:36.974Z,-1.70
2024-01-19T02:14:06.805Z,-1.70
2024-01-19T02:16:34.397Z,-1.60
2024-01-19T02:19:01.814Z,-1.60
2024-01-19T02:21:30.411Z,-1.60
2024-01-19T02:24:02.614Z,-1.60
2024-01-19T02:26:35.808Z,-1.60
2024-01-19T02:29:03.065Z,-1.60
2024-01-19T02:31:30.248Z,-1.60
2024-01-19T02:33:57.856Z,-1.60
2024-01-19T02:36:25.371Z,-1.60
2024-01-19T02:38:52.578Z,-1.50
2024-01-19T02:41:19.834Z,-1.50
2024-01-19T02:43:47.010Z,-1.40
2024-01-19T02:46:16.439Z,-1.50
2024-01-19T02:48:43.877Z,-1.50
2024-01-19T02:51:11.130Z,-1.40
2024-01-19T02:53:38.344Z,-1.40
2024-01-19T02:56:05.687Z,-1.40
2024-01-19T02:58:33.015Z,-1.30
2024-01-19T03:01:00.612Z,-1.30
2024-01-19T03:03:27.859Z,-1.30
2024-01-19T03:05:55.073Z,-1.30
2024-01-19T03:08:22.860Z,-1.30
2024-01-19T03:10:50.113Z,-1.30
2024-01-19T03:13:17.254Z,-1.30
2024-01-19T03:15:44.533Z,-1.30
2024-01-19T03:18:11.785Z,-1.30
2024-01-19T03:20:39.088Z,-1.30
2024-01-19T03:23:08.699Z,-1.30
2024-01-19T03:25:35.916Z,-1.30
2024-01-19T03:28:03.240Z,-1.30
2024-01-19T03:30:30.436Z,-1.30
2024-01-19T03:32:57.649Z,-1.30
2024-01-19T03:35:26.133Z,-1.30
2024-01-19T03:37:53.297Z,-1.30
2024-01-19T03:40:20.445Z,-1.30
2024-01-19T03:42:48.394Z,-1.20
2024-01-19T03:45:15.810Z,-1.20
2024-01-19T03:47:44.496Z,-1.20
2024-01-19T03:50:11.930Z,-1.20
2024-01-19T03:52:39.337Z,-1.20
2024-01-19T03:55:06.803Z,-1.20
2024-01-19T03:57:34.214Z,-1.20
2024-01-19T04:00:01.850Z,-1.20
2024-01-19T04:02:39.081Z,-1.20
2024-01-19T04:05:07.105Z,-1.30
2024-01-19T04:07:34.295Z,-1.30
2024-01-19T04:10:01.589Z,-1.30
2024-01-19T04:12:28.840Z,-1.30
2024-01-19T04:14:56.201Z,-1.30
2024-01-19T04:17:23.591Z,-1.30
2024-01-19T04:19:50.859Z,-1.30
2024-01-19T04:22:17.990Z,-1.30
2024-01-19T04:24:45.205Z,-1.40
2024-01-19T04:27:12.396Z,-1.40
2024-01-19T04:29:39.590Z,-1.50
2024-01-19T04:32:06.840Z,-1.70
2024-01-19T04:34:34.082Z,-1.70
2024-01-19T04:37:01.257Z,-1.70
2024-01-19T04:39:28.406Z,-1.70
2024-01-19T04:41:55.652Z,-1.70
2024-01-19T04:44:22.879Z,-1.70
2024-01-19T04:46:50.055Z,-1.70
2024-01-19T04:49:17.383Z,-1.60
2024-01-19T04:51:44.529Z,-1.60
2024-01-19T04:54:11.726Z,-1.50
2024-01-19T04:56:38.969Z,-1.60
2024-01-19T04:59:06.476Z,-1.70
2024-01-19T05:01:33.685Z,-1.80
2024-01-19T05:04:00.861Z,-2.00
2024-01-19T05:06:28.505Z,-2.10
2024-01-19T05:08:55.823Z,-2.10
2024-01-19T05:11:22.993Z,-2.20
2024-01-19T05:13:50.208Z,-2.30
2024-01-19T05:16:17.426Z,-2.30
2024-01-19T05:18:44.635Z,-2.40
2024-01-19T05:21:11.892Z,-2.50
2024-01-19T05:23:39.279Z,-2.60
2024-01-19T05:26:06.493Z,-2.70
2024-01-19T05:28:37.496Z,-2.90
2024-01-19T05:31:04.819Z,-2.90
2024-01-19T05:33:36.267Z,-3.00
2024-01-19T05:36:05.113Z,-3.00
2024-01-19T05:38:32.363Z,-3.00
2024-01-19T05:41:03.513Z,-3.10
2024-01-19T05:43:31.400Z,-3.20
2024-01-19T05:45:58.578Z,-3.30
2024-01-19T05:48:26.632Z,-3.30
2024-01-19T05:50:54.409Z,-3.30
2024-01-19T05:53:21.650Z,-3.30
2024-01-19T05:55:48.932Z,-3.30
2024-01-19T05:58:17.079Z,-3.20
2024-01-19T06:00:44.274Z,-3.10
2024-01-19T06:03:11.632Z,-3.00
2024-01-19T06:05:39.088Z,-2.90
2024-01-19T06:08:06.393Z,-2.80
2024-01-19T06:10:33.531Z,-2.60
2024-01-19T06:13:00.689Z,-2.40
2024-01-19T06:15:27.834Z,-2.40
2024-01-19T06:17:55.035Z,-2.30
2024-01-19T06:20:22.286Z,-2.30
2024-01-19T06:22:49.717Z,-2.30
2024-01-19T06:25:16.947Z,-2.30
2024-01-19T06:27:44.087Z,-2.30
2024-01-19T06:30:11.829Z,-2.30
2024-01-19T06:32:39.047Z,-2.40
2024-01-19T06:35:06.999Z,-2.40
2024-01-19T06:37:34.155Z,-2.40
2024-01-19T06:40:01.360Z,-2.40
2024-01-19T06:42:30.306Z,-2.30
2024-01-19T06:44:57.451Z,-2.30
2024-01-19T06:47:24.779Z,-2.30
2024-01-19T06:49:52.081Z,-2.30
2024-01-19T06:52:19.254Z,-2.40
2024-01-19T06:54:46.428Z,-2.40
2024-01-19T06:57:13.593Z,-2.60
2024-01-19T06:59:43.156Z,-2.70
2024-01-19T07:02:12.511Z,-2.70
2024-01-19T07:04:39.695Z,-2.80
2024-01-19T07:07:06.977Z,-2.80
2024-01-19T07:09:34.106Z,-2.80
2024-01-19T07:12:01.275Z,-2.90
2024-01-19T07:14:28.477Z,-3.00
2024-01-19T07:16:56.367Z,-3.10
2024-01-19T07:19:23.765Z,-3.20
2024-01-19T07:21:51.011Z,-3.30
2024-01-19T07:24:19.054Z,-3.40
2024-01-19T07:26:46.995Z,-3.40
2024-01-19T07:29:15.242Z,-3.40
2024-01-19T07:31:42.477Z,-3.40
2024-01-19T07:34:09.814Z,-3.40
2024-01-19T07:36:37.093Z,-3.40
2024-01-19T07:39:04.782Z,-3.40
2024-01-19T07:41:32.034Z,-3.30
2024-01-19T07:43:59.249Z,-3.20
2024-01-19T07:46:26.411Z,-3.20
2024-01-19T07:48:53.778Z,-3.20
2024-01-19T07:51:21.628Z,-3.30
2024-01-19T07:53:48.936Z,-3.30
2024-01-19T07:56:16.130Z,-3.20
2024-01-19T07:58:44.816Z,-3.10
2024-01-19T08:01:12.745Z,-3.10
2024-01-19T08:03:40.313Z,-3.00
2024-01-19T08:06:07.756Z,-3.00
2024-01-19T08:08:35.051Z,-2.90
2024-01-19T08:11:02.230Z,-2.80
2024-01-19T08:13:29.443Z,-2.80
2024-01-19T08:15:56.653Z,-2.90
2024-01-19T08:18:24.062Z,-2.80
2024-01-19T08:20:51.780Z,-2.90
2024-01-19T08:23:18.956Z,-2.80
2024-01-19T08:25:46.222Z,-2.80
2024-01-19T08:28:13.608Z,-2.80
2024-01-19T08:30:40.743Z,-2.70
2024-01-19T08:33:08.661Z,-2.70
2024-01-19T08:35:36.069Z,-2.60
2024-01-19T08:38:03.459Z,-2.60
2024-01-19T08:40:30.692Z,-2.60
2024-01-19T08:42:57.957Z,-2.60
2024-01-19T08:45:25.233Z,-2.50
2024-01-19T08:47:52.508Z,-2.40
2024-01-19T08:50:19.812Z,-2.30
2024-01-19T08:52:46.958Z,-2.30
2024-01-19T08:55:14.283Z,-2.30
2024-01-19T08:57:41.476Z,-2.30
2024-01-19T09:00:10.095Z,-2.40
2024-01-19T09:02:40.587Z,-2.30
2024-01-19T09:05:12.575Z,-2.30
2024-01-19T09:07:40.035Z,-2.30
2024-01-19T09:10:08.279Z,-2.20
2024-01-19T09:12:35.453Z,-2.10
2024-01-19T09:15:04.739Z,-1.90
2024-01-19T09:17:32.118Z,-1.80
2024-01-19T09:19:59.426Z,-1.80
2024-01-19T09:22:28.098Z,-1.70
2024-01-19T09:24:55.264Z,-1.60
2024-01-19T09:27:22.434Z,-1.60
2024-01-19T09:29:50.044Z,-1.50
2024-01-19T09:32:17.658Z,-1.50
2024-01-19T09:34:46.053Z,-1.50
2024-01-19T09:37:13.392Z,-1.50
2024-01-19T09:39:40.563Z,-1.40
2024-01-19T09:42:25.891Z,-1.30
2024-01-19T09:45:08.633Z,-1.00
2024-01-19T09:48:00.092Z,-0.60
2024-01-19T09:50:37.253Z,-0.20
2024-01-19T09:53:27.207Z,-0.10
2024-01-19T09:55:55.231Z,0.30
2024-01-19T09:58:23.290Z,0.60
2024-01-19T10:00:52.092Z,0.70
2024-01-19T10:03:19.940Z,1.00
2024-01-19T10:05:49.899Z,1.50
2024-01-19T10:08:17.984Z,2.30
2024-01-19T10:10:45.874Z,3.00
2024-01-19T10:13:13.143Z,3.40
2024-01-19T10:15:44.152Z,3.60
2024-01-19T10:18:12.063Z,3.60
2024-01-19T10:20:41.677Z,3.70
2024-01-19T10:23:22.269Z,3.60
2024-01-19T10:25:50.668Z,3.10
2024-01-19T10:28:36.261Z,3.20
2024-01-19T10:31:27.209Z,3.60
2024-01-19T10:33:59.106Z,3.70
2024-01-19T10:36:27.862Z,3.80
2024-01-19T10:38:55.732Z,3.80
2024-01-19T10:41:28.806Z,3.80
2024-01-19T10:44:11.979Z,4.40
2024-01-19T10:46:39.371Z,5.10
2024-01-19T10:49:08.966Z,5.40
2024-01-19T10:51:38.699Z,5.40
2024-01-19T10:54:06.554Z,5.60
2024-01-19T10:56:33.819Z,6.10
2024-01-19T10:59:11.477Z,6.60
2024-01-19T11:01:39.629Z,7.00
2024-01-19T11:04:13.070Z,7.10
2024-01-19T11:06:40.482Z,7.20
2024-01-19T11:09:08.281Z,7.30
2024-01-19T11:11:51.064Z,7.70
2024-01-19T11:14:21.814Z,8.20
2024-01-19T11:16:49.827Z,8.50
2024-01-19T11:19:18.325Z,8.70
2024-01-19T11:21:45.949Z,9.00
2024-01-19T11:24:18.072Z,9.10
2024-01-19T11:27:10.332Z,9.20
2024-01-19T11:29:43.471Z,9.30
2024-01-19T11:32:12.325Z,9.50
2024-01-19T11:34:40.158Z,9.20
2024-01-19T11:37:07.628Z,9.10
2024-01-19T11:39:42.688Z,9.20
2024-01-19T11:42:11.282Z,9.60
2024-01-19T11:44:44.843Z,9.90
2024-01-19T11:47:37.405Z,10.20
2024-01-19T11:50:13.424Z,10.70
2024-01-19T11:52:43.298Z,10.90
2024-01-19T11:55:29.064Z,11.00
2024-01-19T11:57:56.919Z,11.20
2024-01-19T12:00:24.322Z,11.20
2024-01-19T12:02:56.870Z,11.20
2024-01-19T12:05:26.101Z,11.40
2024-01-19T12:08:01.971Z,11.60
2024-01-19T12:10:29.193Z,11.80
2024-01-19T12:12:56.464Z,11.80
2024-01-19T12:15:24.049Z,11.80
2024-01-19T12:17:51.332Z,11.90
2024-01-19T12:20:20.077Z,11.70
2024-01-19T12:22:53.851Z,11.40
2024-01-19T12:25:25.182Z,11.30
2024-01-19T12:28:16.205Z,11.30
2024-01-19T12:30:43.714Z,11.20
2024-01-19T12:33:26.615Z,10.90
2024-01-19T12:36:05.138Z,10.90
2024-01-19T12:38:32.424Z,11.00
2024-01-19T12:40:59.774Z,11.40
2024-01-19T12:43:31.223Z,11.40
2024-01-19T12:46:03.064Z,11.50
2024-01-19T12:48:35.259Z,11.70
2024-01-19T12:51:07.303Z,11.80
2024-01-19T12:53:41.237Z,11.70
2024-01-19T12:56:28.375Z,11.50
2024-01-19T12:59:09.779Z,11.10
2024-01-19T13:01:38.138Z,11.00
2024-01-19T13:04:05.675Z,11.00
2024-01-19T13:06:33.173Z,11.10
2024-01-19T13:09:01.127Z,11.00
2024-01-19T13:11:28.356Z,10.80
2024-01-19T13:14:03.368Z,10.80
2024-01-19T13:16:31.910Z,10.80
2024-01-19T13:19:06.175Z,10.70
2024-01-19T13:21:33.465Z,10.50
2024-01-19T13:24:01.125Z,10.40
2024-01-19T13:26:28.364Z,10.60
2024-01-19T13:28:55.674Z,10.50
2024-01-19T13:31:23.154Z,10.40
2024-01-19T13:33:50.338Z,10.20
2024-01-19T13:36:19.237Z,10.20
2024-01-19T13:38:47.058Z,10.30
2024-01-19T13:41:16.040Z,9.90
2024-01-19T13:43:45.552Z,9.50
2024-01-19T13:46:16.193Z,9.30
2024-01-19T13:48:43.871Z,9.20
2024-01-19T13:51:12.036Z,9.00
2024-01-19T13:53:39.388Z,8.70
2024-01-19T13:56:08.266Z,8.40
2024-01-19T13:58:37.625Z,8.40
2024-01-19T14:01:08.306Z,8.40
2024-01-19T14:03:36.177Z,8.40
2024-01-19T14:06:04.205Z,8.50
2024-01-19T14:08:33.030Z,8.40
2024-01-19T14:11:00.862Z,8.30
2024-01-19T14:13:28.161Z,8.10
2024-01-19T14:15:55.545Z,8.10
2024-01-19T14:18:22.694Z,8.20
2024-01-19T14:20:50.449Z,8.30
2024-01-19T14:23:17.834Z,8.30
2024-01-19T14:25:45.061Z,8.20
2024-01-19T14:28:12.575Z,7.90
2024-01-19T14:30:42.965Z,7.80
2024-01-19T14:33:10.493Z,7.60
2024-01-19T14:35:40.193Z,7.60
2024-01-19T14:38:07.801Z,7.60
2024-01-19T14:40:35.100Z,7.60
2024-01-19T14:43:02.373Z,7.50
2024-01-19T14:45:30.159Z,7.40
2024-01-19T14:47:58.367Z,7.30
2024-01-19T14:50:28.008Z,7.30
2024-01-19T14:53:02.188Z,7.00
2024-01-19T14:55:30.450Z,6.70
2024-01-19T14:57:57.653Z,6.60
2024-01-19T15:00:25.084Z,6.60
2024-01-19T15:02:52.290Z,6.40
2024-01-19T15:05:19.535Z,5.80
2024-01-19T15:07:46.881Z,4.60
2024-01-19T15:10:14.844Z,3.40
2024-01-19T15:12:42.409Z,2.40
2024-01-19T15:15:11.251Z,1.70
2024-01-19T15:17:39.158Z,1.10
2024-01-19T15:20:07.095Z,0.60
2024-01-19T15:22:35.605Z,0.40
2024-01-19T15:25:03.031Z,0.60
2024-01-19T15:27:30.200Z,1.10
2024-01-19T15:29:57.416Z,1.50
2024-01-19T15:32:24.807Z,1.80
2024-01-19T15:34:52.445Z,2.00
2024-01-19T15:37:22.809Z,2.00
2024-01-19T15:39:50.932Z,1.90
2024-01-19T15:42:18.149Z,1.80
2024-01-19T15:44:45.877Z,1.60
2024-01-19T15:47:14.799Z,1.40
2024-01-19T15:49:42.287Z,1.00
2024-01-19T15:52:09.777Z,0.50
2024-01-19T15:54:37.381Z,0.10
2024-01-19T15:57:05.108Z,-0.20
2024-01-19T15:59:32.383Z,-0.50
2024-01-19T16:01:59.636Z,-0.80
2024-01-19T16:04:26.889Z,-1.00
2024-01-19T16:06:54.080Z,-1.10
2024-01-19T16:09:21.467Z,-1.30
2024-01-19T16:11:49.603Z,-1.40
2024-01-19T16:14:17.536Z,-1.60
2024-01-19T16:16:48.058Z,-1.70
2024-01-19T16:19:15.867Z,-1.90
2024-01-19T16:21:43.091Z,-1.90
2024-01-19T16:24:17.767Z,-1.90
2024-01-19T16:26:48.634Z,-2.00
2024-01-19T16:29:16.148Z,-2.10
2024-01-19T16:31:43.410Z,-2.10
2024-01-19T16:34:11.813Z,-2.20
2024-01-19T16:36:42.596Z,-2.20
2024-01-19T16:39:12.656Z,-2.30
2024-01-19T16:41:44.030Z,-2.30
2024-01-19T16:44:12.550Z,-2.40
2024-01-19T16:46:41.015Z,-2.50
2024-01-19T16:49:08.638Z,-2.60
2024-01-19T16:51:35.841Z,-2.70
2024-01-19T16:54:03.171Z,-2.80
2024-01-19T16:56:32.584Z,-2.80
2024-01-19T16:59:01.355Z,-2.90
2024-01-19T17:01:28.823Z,-2.80
2024-01-19T17:03:56.193Z,-2.90
2024-01-19T17:06:24.772Z,-2.90
2024-01-19T17:08:51.991Z,-2.90
2024-01-19T17:11:19.297Z,-2.90
2024-01-19T17:13:46.695Z,-3.00
2024-01-19T17:16:16.972Z,-3.00
2024-01-19T17:18:48.419Z,-3.10
2024-01-19T17:21:15.757Z,-3.10
2024-01-19T17:23:43.070Z,-3.10
2024-01-19T17:26:10.260Z,-3.10
2024-01-19T17:28:37.800Z,-3.10
2024-01-19T17:31:05.229Z,-3.00
2024-01-19T17:33:33.224Z,-3.00
2024-01-19T17:36:01.118Z,-3.00
2024-01-19T17:38:28.371Z,-3.00
2024-01-19T17:40:55.688Z,-3.00
2024-01-19T17:43:24.779Z,-3.00
2024-01-19T17:45:51.996Z,-3.00
2024-01-19T17:48:22.737Z,-2.90
2024-01-19T17:50:50.091Z,-2.80
2024-01-19T17:53:17.276Z,-2.80
2024-01-19T17:55:44.527Z,-2.80
2024-01-19T17:58:12.626Z,-2.80
2024-01-19T18:00:39.938Z,-2.80
2024-01-19T18:03:08.717Z,-2.70
2024-01-19T18:05:36.317Z,-2.80
2024-01-19T18:08:03.807Z,-2.80
2024-01-19T18:10:31.152Z,-2.70
2024-01-19T18:12:58.573Z,-2.70
2024-01-19T18:15:25.919Z,-2.70
2024-01-19T18:17:53.256Z,-2.60
2024-01-19T18:20:20.760Z,-2.60
2024-01-19T18:22:48.132Z,-2.50
2024-01-19T18:25:15.449Z,-2.50
2024-01-19T18:27:42.803Z,-2.50
2024-01-19T18:30:10.789Z,-2.50
2024-01-19T18:32:38.197Z,-2.40
2024-01-19T18:35:05.896Z,-2.40
2024-01-19T18:37:34.282Z,-2.40
2024-01-19T18:40:04.583Z,-2.40
2024-01-19T18:42:32.759Z,-2.30
2024-01-19T18:45:00.236Z,-2.40
2024-01-19T18:47:27.605Z,-2.40
2024-01-19T18:49:55.433Z,-2.40
2024-01-19T18:52:23.048Z,-2.40
2024-01-19T18:54:50.460Z,-2.50
2024-01-19T18:57:17.738Z,-2.50
2024-01-19T18:59:45.218Z,-2.60
2024-01-19T19:02:15.008Z,-2.60
2024-01-19T19:04:42.450Z,-2.60
2024-01-19T19:07:10.103Z,-2.70
2024-01-19T19:09:37.622Z,-2.70
2024-01-19T19:12:05.692Z,-2.70
2024-01-19T19:14:33.012Z,-2.70
2024-01-19T19:17:01.763Z,-2.60
2024-01-19T19:19:29.231Z,-2.50
2024-01-19T19:21:58.849Z,-2.50
2024-01-19T19:24:26.261Z,-2.60
2024-01-19T19:26:53.495Z,-2.60
2024-01-19T19:29:20.724Z,-2.60
2024-01-19T19:31:48.047Z,-2.60
2024-01-19T19:34:16.773Z,-2.60
2024-01-19T19:36:44.954Z,-2.60
2024-01-19T19:39:12.162Z,-2.60
2024-01-19T19:41:46.185Z,-2.60
2024-01-19T19:44:13.719Z,-2.60
2024-01-19T19:46:41.348Z,-2.60
2024-01-19T19:49:08.769Z,-2.60
2024-01-19T19:51:37.452Z,-2.60
2024-01-19T19:54:05.116Z,-2.70
2024-01-19T19:56:36.256Z,-2.80
2024-01-19T19:59:03.493Z,-2.80
2024-01-19T20:01:30.844Z,-2.90
2024-01-19T20:03:58.080Z,-2.90
2024-01-19T20:06:26.482Z,-2.90
2024-01-19T20:08:54.534Z,-2.90
2024-01-19T20:11:22.198Z,-3.00
2024-01-19T20:13:49.569Z,-3.00
2024-01-19T20:16:17.280Z,-3.10
2024-01-19T20:18:45.257Z,-3.20
2024-01-19T20:21:12.561Z,-3.30
2024-01-19T20:23:39.815Z,-3.40
2024-01-19T20:26:11.134Z,-3.40
2024-01-19T20:28:39.451Z,-3.40
2024-01-19T20:31:07.074Z,-3.50
2024-01-19T20:33:36.007Z,-3.50
2024-01-19T20:36:03.729Z,-3.40
2024-01-19T20:38:31.335Z,-3.50
2024-01-19T20:40:59.332Z,-3.50
2024-01-19T20:43:26.612Z,-3.50
2024-01-19T20:45:53.806Z,-3.50
2024-01-19T20:48:21.159Z,-3.50
2024-01-19T20:50:49.062Z,-3.40
2024-01-19T20:53:16.403Z,-3.50
2024-01-19T20:55:44.125Z,-3.50
2024-01-19T20:58:11.307Z,-3.50
2024-01-19T21:00:38.613Z,-3.50
2024-01-19T21:03:06.764Z,-3.40
2024-01-19T21:05:34.232Z,-3.40
2024-01-19T21:08:01.608Z,-3.40
2024-01-19T21:10:30.137Z,-3.40
2024-01-19T21:12:57.772Z,-3.50
2024-01-19T21:15:27.191Z,-3.60
2024-01-19T21:17:55.328Z,-3.60
2024-01-19T21:20:24.117Z,-3.70
2024-01-19T21:22:51.858Z,-3.60
2024-01-19T21:25:21.458Z,-3.60
2024-01-19T21:27:49.014Z,-3.60
2024-01-19T21:30:16.506Z,-3.60
2024-01-19T21:32:43.765Z,-3.60
2024-01-19T21:35:11.437Z,-3.60
2024-01-19T21:37:38.954Z,-3.70
2024-01-19T21:40:09.256Z,-3.70
2024-01-19T21:42:42.222Z,-3.80
2024-01-19T21:45:09.651Z,-3.80
2024-01-19T21:47:37.686Z,-3.80
2024-01-19T21:50:05.376Z,-3.80
2024-01-19T21:52:34.054Z,-3.90
2024-01-19T21:55:03.764Z,-4.00
2024-01-19T21:57:31.284Z,-3.90
2024-01-19T22:00:00.550Z,-3.90
2024-01-19T22:02:28.320Z,-3.90
2024-01-19T22:04:56.038Z,-3.80
2024-01-19T22:07:23.578Z,-3.90
2024-01-19T22:09:50.935Z,-3.90
2024-01-19T22:12:18.213Z,-3.90
2024-01-19T22:14:45.543Z,-3.90
2024-01-19T22:17:12.770Z,-3.90
2024-01-19T22:19:42.088Z,-3.90
2024-01-19T22:22:09.293Z,-3.80
2024-01-19T22:24:36.506Z,-3.70
2024-01-19T22:27:04.120Z,-3.70
2024-01-19T22:29:31.741Z,-3.60
2024-01-19T22:31:59.006Z,-3.60
2024-01-19T22:34:26.462Z,-3.60
2024-01-19T22:36:53.764Z,-3.60
2024-01-19T22:39:21.056Z,-3.70
2024-01-19T22:41:48.208Z,-3.70
2024-01-19T22:44:16.186Z,-3.80
2024-01-19T22:46:43.731Z,-3.80
2024-01-19T22:49:11.939Z,-3.80
2024-01-19T22:51:39.664Z,-3.80
2024-01-19T22:54:07.084Z,-3.80
2024-01-19T22:56:34.481Z,-3.90
2024-01-19T22:59:02.087Z,-3.90
2024-01-19T23:01:29.375Z,-3.90
2024-01-19T23:03:57.801Z,-3.90
2024-01-19T23:06:25.267Z,-4.00
2024-01-19T23:08:52.565Z,-4.00
2024-01-19T23:11:19.832Z,-4.00
2024-01-19T23:13:48.355Z,-4.00
2024-01-19T23:16:15.652Z,-4.00
2024-01-19T23:18:43.131Z,-4.00
2024-01-19T23:21:11.428Z,-4.00
2024-01-19T23:23:38.973Z,-4.10
2024-01-19T23:26:09.210Z,-4.20
2024-01-19T23:28:36.464Z,-4.30
2024-01-19T23:31:03.932Z,-4.40
2024-01-19T23:33:31.400Z,-4.50
2024-01-19T23:35:58.821Z,-4.50
2024-01-19T23:38:27.309Z,-4.50
2024-01-19T23:40:55.853Z,-4.50
2024-01-19T23:43:24.597Z,-4.50
2024-01-19T23:45:51.804Z,-4.60
2024-01-19T23:48:19.098Z,-4.70
2024-01-19T23:50:46.360Z,-4.70
2024-01-19T23:53:13.726Z,-4.70
2024-01-19T23:55:41.210Z,-4.70
2024-01-19T23:58:08.397Z,-4.70
